createdAt,value
2022-11-27T00:01:28.031Z,22.05
2022-11-27T00:03:56.387Z,21.25
2022-11-27T00:06:25.890Z,22.13
2022-11-27T00:08:53.286Z,23.52
2022-11-27T00:11:22.714Z,24.37
2022-11-27T00:13:50.622Z,23.42
2022-11-27T00:16:18.672Z,22.23
2022-11-27T00:18:46.391Z,23.70
2022-11-27T00:21:16.328Z,37.35
2022-11-27T00:23:44.003Z,35.83
2022-11-27T00:26:14.423Z,36.50
2022-11-27T00:28:42.061Z,35.85
2022-11-27T00:31:15.692Z,38.28
2022-11-27T00:33:43.404Z,34.67
2022-11-27T00:36:12.077Z,30.52
2022-11-27T00:38:39.490Z,39.28
2022-11-27T00:41:12.574Z,35.80
2022-11-27T00:43:44.193Z,44.28
2022-11-27T00:46:14.136Z,43.33
2022-11-27T00:48:41.745Z,43.45
2022-11-27T00:51:12.190Z,43.38
2022-11-27T00:53:40.064Z,37.13
2022-11-27T00:56:07.895Z,39.33
2022-11-27T00:58:35.469Z,38.70
2022-11-27T01:01:06.489Z,39.30
2022-11-27T01:03:34.774Z,39.92
2022-11-27T01:06:04.246Z,37.90
2022-11-27T01:08:32.602Z,36.13
2022-11-27T01:11:00.821Z,40.88
2022-11-27T01:13:34.030Z,41.47
2022-11-27T01:16:07.454Z,32.65
2022-11-27T01:18:35.981Z,38.72
2022-11-27T01:21:04.355Z,38.20
2022-11-27T01:23:31.891Z,39.03
2022-11-27T01:26:06.790Z,38.95
2022-11-27T01:28:35.143Z,43.22
2022-11-27T01:31:07.334Z,37.65
2022-11-27T01:33:35.004Z,39.70
2022-11-27T01:36:04.839Z,33.83
2022-11-27T01:38:32.951Z,35.13
2022-11-27T01:41:08.203Z,33.97
2022-11-27T01:43:41.875Z,36.90
2022-11-27T01:46:30.108Z,35.78
2022-11-27T01:49:05.441Z,39.17
2022-11-27T01:51:33.160Z,35.03
2022-11-27T01:54:00.531Z,36.17
2022-11-27T01:56:28.319Z,40.42
2022-11-27T01:58:57.635Z,33.55
2022-11-27T02:01:26.184Z,34.95
2022-11-27T02:03:55.173Z,35.05
2022-11-27T02:06:22.738Z,33.78
2022-11-27T02:08:50.162Z,35.05
2022-11-27T02:11:29.338Z,34.58
2022-11-27T02:14:32.377Z,34.40
2022-11-27T02:17:20.487Z,33.35
2022-11-27T02:20:12.882Z,30.27
2022-11-27T02:22:52.045Z,33.67
2022-11-27T02:25:34.877Z,36.60
2022-11-27T02:28:14.226Z,35.88
2022-11-27T02:30:47.288Z,35.38
2022-11-27T02:33:17.643Z,37.35
2022-11-27T02:35:52.030Z,41.70
2022-11-27T02:38:33.125Z,34.88
2022-11-27T02:41:06.930Z,34.92
2022-11-27T02:43:37.546Z,35.15
2022-11-27T02:46:06.829Z,36.58
2022-11-27T02:48:42.772Z,33.80
2022-11-27T02:51:12.250Z,35.92
2022-11-27T02:53:43.666Z,36.70
2022-11-27T02:56:14.449Z,40.67
2022-11-27T02:58:42.254Z,44.78
2022-11-27T03:01:10.863Z,47.38
2022-11-27T03:03:45.550Z,41.15
2022-11-27T03:06:17.666Z,42.38
2022-11-27T03:09:02.175Z,41.05
2022-11-27T03:11:32.523Z,46.75
2022-11-27T03:14:03.791Z,41.13
2022-11-27T03:16:57.002Z,41.25
2022-11-27T03:19:47.876Z,44.05
2022-11-27T03:22:16.501Z,41.37
2022-11-27T03:24:44.318Z,42.38
2022-11-27T03:27:17.844Z,48.58
2022-11-27T03:29:48.147Z,44.83
2022-11-27T03:32:15.906Z,48.45
2022-11-27T03:34:43.621Z,54.63
2022-11-27T03:37:11.358Z,51.85
2022-11-27T03:39:39.009Z,54.22
2022-11-27T03:42:18.509Z,53.13
2022-11-27T03:45:08.138Z,52.50
2022-11-27T03:47:45.164Z,58.60
2022-11-27T03:50:40.306Z,48.97
2022-11-27T03:53:19.926Z,53.67
2022-11-27T03:56:05.430Z,50.22
2022-11-27T03:58:43.925Z,53.58
2022-11-27T04:01:13.434Z,45.45
2022-11-27T04:03:41.032Z,60.28
2022-11-27T04:06:08.510Z,52.67
2022-11-27T04:08:36.043Z,62.03
2022-11-27T04:11:03.671Z,54.92
2022-11-27T04:13:31.259Z,54.22
2022-11-27T04:16:02.272Z,57.30
2022-11-27T04:18:30.557Z,58.75
2022-11-27T04:20:58.252Z,48.25
2022-11-27T04:23:25.562Z,52.10
2022-11-27T04:25:53.124Z,56.13
2022-11-27T04:28:20.716Z,53.47
2022-11-27T04:30:52.773Z,61.25
2022-11-27T04:33:20.592Z,57.00
2022-11-27T04:35:48.003Z,59.40
2022-11-27T04:38:15.383Z,59.63
2022-11-27T04:40:43.110Z,60.72
2022-11-27T04:43:10.417Z,68.53
2022-11-27T04:45:37.823Z,61.80
2022-11-27T04:48:05.971Z,63.78
2022-11-27T04:50:33.350Z,58.13
2022-11-27T04:53:00.712Z,71.62
2022-11-27T04:55:28.275Z,62.25
2022-11-27T04:57:55.637Z,67.28
2022-11-27T05:00:22.955Z,66.35
2022-11-27T05:02:50.640Z,64.35
2022-11-27T05:05:17.950Z,61.13
2022-11-27T05:07:45.552Z,61.78
2022-11-27T05:10:13.264Z,61.17
2022-11-27T05:12:40.574Z,56.70
2022-11-27T05:15:09.041Z,56.85
2022-11-27T05:17:36.601Z,64.68
2022-11-27T05:20:04.190Z,55.03
2022-11-27T05:22:31.543Z,59.72
2022-11-27T05:24:59.148Z,53.17
2022-11-27T05:27:26.604Z,51.25
2022-11-27T05:29:53.908Z,48.80
2022-11-27T05:32:21.482Z,53.70
2022-11-27T05:34:49.674Z,44.13
2022-11-27T05:37:19.724Z,49.72
2022-11-27T05:39:47.798Z,39.63
2022-11-27T05:42:15.145Z,34.65
2022-11-27T05:44:42.761Z,48.33
2022-11-27T05:47:10.532Z,39.85
2022-11-27T05:49:38.568Z,39.92
2022-11-27T05:52:05.916Z,41.97
2022-11-27T05:54:33.496Z,97.88
2022-11-27T05:57:00.771Z,39.40
2022-11-27T05:59:28.150Z,37.45
2022-11-27T06:01:55.803Z,60.58
2022-11-27T06:04:23.461Z,43.65
2022-11-27T06:06:51.031Z,37.05
2022-11-27T06:09:18.336Z,41.10
2022-11-27T06:11:45.963Z,52.85
2022-11-27T06:14:13.266Z,33.15
2022-11-27T06:16:40.595Z,37.15
2022-11-27T06:19:09.145Z,39.22
2022-11-27T06:21:36.571Z,34.83
2022-11-27T06:24:04.108Z,33.83
2022-11-27T06:26:33.401Z,32.75
2022-11-27T06:29:01.217Z,27.70
2022-11-27T06:31:31.264Z,29.20
2022-11-27T06:33:59.066Z,28.05
2022-11-27T06:36:32.009Z,30.30
2022-11-27T06:39:00.152Z,25.55
2022-11-27T06:41:28.634Z,33.40
2022-11-27T06:43:58.592Z,27.35
2022-11-27T06:46:26.922Z,29.45
2022-11-27T06:48:54.893Z,30.92
2022-11-27T06:51:25.038Z,25.55
2022-11-27T06:53:53.409Z,25.75
2022-11-27T06:56:25.767Z,26.25
2022-11-27T06:58:55.588Z,29.40
2022-11-27T07:01:24.496Z,25.15
2022-11-27T07:03:52.164Z,29.48
2022-11-27T07:06:22.335Z,32.05
2022-11-27T07:08:49.641Z,31.27
2022-11-27T07:11:19.754Z,28.33
2022-11-27T07:13:48.138Z,33.70
2022-11-27T07:16:16.682Z,33.67
2022-11-27T07:18:47.246Z,36.95
2022-11-27T07:21:15.064Z,39.60
2022-11-27T07:23:42.452Z,42.35
2022-11-27T07:26:15.899Z,40.12
2022-11-27T07:28:44.193Z,34.13
2022-11-27T07:31:16.689Z,37.78
2022-11-27T07:33:44.429Z,38.85
2022-11-27T07:36:14.645Z,43.65
2022-11-27T07:38:42.693Z,39.83
2022-11-27T07:41:10.725Z,48.55
2022-11-27T07:43:38.116Z,46.20
2022-11-27T07:46:08.187Z,46.08
2022-11-27T07:48:35.845Z,44.97
2022-11-27T07:51:06.141Z,43.03
2022-11-27T07:53:37.570Z,41.20
2022-11-27T07:56:09.658Z,41.78
2022-11-27T07:58:37.013Z,47.92
2022-11-27T08:01:09.729Z,41.33
2022-11-27T08:03:38.051Z,40.00
2022-11-27T08:06:13.923Z,40.50
2022-11-27T08:08:41.503Z,38.92
2022-11-27T08:11:18.729Z,36.50
2022-11-27T08:13:46.653Z,39.67
2022-11-27T08:16:14.123Z,38.63
2022-11-27T08:18:41.742Z,47.00
2022-11-27T08:21:09.402Z,42.03
2022-11-27T08:23:36.755Z,36.72
2022-11-27T08:26:11.454Z,35.92
2022-11-27T08:28:39.814Z,39.28
2022-11-27T08:31:09.041Z,40.95
2022-11-27T08:33:36.881Z,40.05
2022-11-27T08:36:04.704Z,38.53
2022-11-27T08:38:32.044Z,37.53
2022-11-27T08:41:01.563Z,41.10
2022-11-27T08:43:29.878Z,35.55
2022-11-27T08:45:57.376Z,42.20
2022-11-27T08:48:24.981Z,43.95
2022-11-27T08:50:52.854Z,42.53
2022-11-27T08:53:20.883Z,38.40
2022-11-27T08:55:48.225Z,41.05
2022-11-27T08:58:15.871Z,38.92
2022-11-27T09:00:43.475Z,36.38
2022-11-27T09:03:12.327Z,37.35
2022-11-27T09:05:44.343Z,33.05
2022-11-27T09:08:16.747Z,37.10
2022-11-27T09:10:44.314Z,34.13
2022-11-27T09:13:11.688Z,33.38
2022-11-27T09:15:39.054Z,44.20
2022-11-27T09:18:06.662Z,32.22
2022-11-27T09:20:34.031Z,35.00
2022-11-27T09:23:02.477Z,37.72
2022-11-27T09:25:30.079Z,30.80
2022-11-27T09:27:57.435Z,33.22
2022-11-27T09:30:24.772Z,29.55
2022-11-27T09:32:52.532Z,28.40
2022-11-27T09:35:20.049Z,28.77
2022-11-27T09:37:47.727Z,26.33
2022-11-27T09:40:17.454Z,27.83
2022-11-27T09:43:09.792Z,27.08
2022-11-27T09:45:54.962Z,30.08
2022-11-27T09:48:33.675Z,31.60
2022-11-27T09:51:05.128Z,29.25
2022-11-27T09:56:13.510Z,30.58
2022-11-27T09:58:42.968Z,33.60
2022-11-27T10:01:16.813Z,34.55
2022-11-27T10:03:45.774Z,32.10
2022-11-27T10:06:33.266Z,32.15
2022-11-27T10:09:09.085Z,32.10
2022-11-27T10:11:53.823Z,31.08
2022-11-27T10:14:30.909Z,30.20
2022-11-27T10:17:02.420Z,33.85
2022-11-27T10:19:39.535Z,29.75
2022-11-27T10:22:21.427Z,32.92
2022-11-27T10:25:15.601Z,28.80
2022-11-27T10:30:56.608Z,36.15
2022-11-27T10:33:27.538Z,35.60
2022-11-27T10:35:55.202Z,34.53
2022-11-27T10:38:24.300Z,30.37
2022-11-27T10:41:06.421Z,34.80
2022-11-27T10:43:35.868Z,38.10
2022-11-27T10:46:25.187Z,38.88
2022-11-27T10:48:52.858Z,35.55
2022-11-27T10:51:30.471Z,34.67
2022-11-27T10:53:59.416Z,34.60
2022-11-27T10:56:40.459Z,39.70
2022-11-27T10:59:19.755Z,35.65
2022-11-27T11:01:50.392Z,38.40
2022-11-27T11:04:39.141Z,33.45
2022-11-27T11:07:27.474Z,35.53
2022-11-27T11:09:55.411Z,36.22
2022-11-27T11:12:23.956Z,39.78
2022-11-27T11:15:01.730Z,54.42
2022-11-27T11:17:37.849Z,51.72
2022-11-27T11:20:15.407Z,45.97
2022-11-27T11:22:47.230Z,47.50
2022-11-27T11:25:19.957Z,47.47
2022-11-27T11:27:48.625Z,53.87
2022-11-27T11:30:25.019Z,50.17
2022-11-27T11:32:59.858Z,46.72
2022-11-27T11:35:32.151Z,47.33
2022-11-27T11:40:31.806Z,49.30
2022-11-27T11:43:00.484Z,50.00
2022-11-27T11:45:33.421Z,48.35
2022-11-27T11:48:25.318Z,56.88
2022-11-27T11:51:10.190Z,58.63
2022-11-27T11:53:39.997Z,58.85
2022-11-27T11:56:32.407Z,58.87
2022-11-27T11:59:10.955Z,62.72
2022-11-27T12:01:59.665Z,60.75
2022-11-27T12:04:52.448Z,58.35
2022-11-27T12:07:51.812Z,61.90
2022-11-27T12:10:29.918Z,57.15
2022-11-27T12:13:06.531Z,56.90
2022-11-27T12:15:39.914Z,63.40
2022-11-27T12:18:43.157Z,55.78
2022-11-27T12:21:41.776Z,51.37
2022-11-27T12:24:34.851Z,51.67
2022-11-27T12:27:19.061Z,55.20
2022-11-27T12:29:55.452Z,52.20
2022-11-27T12:32:31.643Z,51.88
2022-11-27T12:35:17.675Z,54.05
2022-11-27T12:38:00.698Z,44.50
2022-11-27T12:40:33.305Z,55.70
2022-11-27T12:43:12.729Z,49.10
2022-11-27T12:46:10.771Z,51.83
2022-11-27T12:48:50.155Z,54.08
2022-11-27T12:51:34.279Z,50.20
2022-11-27T12:54:06.671Z,60.10
2022-11-27T12:56:49.201Z,48.80
2022-11-27T12:59:25.349Z,51.97
2022-11-27T13:02:09.394Z,48.50
2022-11-27T13:04:39.867Z,50.42
2022-11-27T13:07:13.989Z,49.13
2022-11-27T13:09:53.766Z,48.20
2022-11-27T13:12:24.935Z,45.10
2022-11-27T13:15:35.784Z,46.08
2022-11-27T13:18:41.804Z,41.75
2022-11-27T13:21:13.343Z,40.08
2022-11-27T13:23:40.917Z,42.15
2022-11-27T13:26:23.343Z,39.15
2022-11-27T13:28:57.620Z,33.95
2022-11-27T13:31:31.235Z,39.45
2022-11-27T13:34:00.506Z,38.20
2022-11-27T13:36:36.239Z,35.22
2022-11-27T13:39:03.788Z,36.55
2022-11-27T13:41:40.162Z,34.35
2022-11-27T13:44:24.951Z,36.95
2022-11-27T13:46:54.809Z,40.12
2022-11-27T13:49:29.242Z,32.72
2022-11-27T13:52:16.860Z,34.90
2022-11-27T13:54:56.386Z,35.45
2022-11-27T13:57:25.222Z,36.90
2022-11-27T14:00:11.329Z,40.38
2022-11-27T14:02:51.219Z,40.38
2022-11-27T14:05:21.200Z,42.05
2022-11-27T14:07:51.211Z,44.08
2022-11-27T14:10:21.879Z,42.92
2022-11-27T14:13:08.658Z,41.50
2022-11-27T14:15:37.272Z,44.85
2022-11-27T14:18:14.703Z,42.03
2022-11-27T14:20:55.491Z,44.17
2022-11-27T14:23:30.793Z,48.55
2022-11-27T14:26:24.907Z,43.60
2022-11-27T14:28:54.597Z,43.08
2022-11-27T14:31:33.570Z,47.25
2022-11-27T14:34:23.128Z,50.85
2022-11-27T14:36:52.499Z,45.45
2022-11-27T14:39:24.644Z,47.58
2022-11-27T14:44:25.435Z,61.37
2022-11-27T14:46:54.562Z,53.75
2022-11-27T14:49:24.829Z,60.47
2022-11-27T14:51:52.665Z,60.20
2022-11-27T14:54:31.225Z,51.63
2022-11-27T14:56:58.758Z,54.95
2022-11-27T14:59:26.444Z,55.90
2022-11-27T15:02:07.264Z,62.08
2022-11-27T15:04:39.934Z,61.85
2022-11-27T15:07:16.120Z,53.15
2022-11-27T15:09:52.618Z,56.88
2022-11-27T15:12:33.985Z,68.03
2022-11-27T15:15:09.149Z,60.92
2022-11-27T15:17:38.343Z,62.88
2022-11-27T15:20:18.674Z,63.30
2022-11-27T15:22:54.456Z,57.40
2022-11-27T15:26:12.562Z,67.90
2022-11-27T15:28:47.163Z,69.43
2022-11-27T15:31:32.614Z,57.33
2022-11-27T15:34:03.764Z,63.78
2022-11-27T15:36:40.153Z,67.25
2022-11-27T15:39:27.270Z,71.45
2022-11-27T15:42:00.033Z,71.62
2022-11-27T15:44:30.339Z,66.20
2022-11-27T15:46:59.942Z,73.30
2022-11-27T15:49:27.602Z,78.35
2022-11-27T15:51:56.422Z,76.65
2022-11-27T15:54:24.607Z,80.60
2022-11-27T15:56:52.104Z,84.87
2022-11-27T15:59:20.933Z,75.78
2022-11-27T16:01:49.686Z,69.35
2022-11-27T16:04:17.490Z,72.53
2022-11-27T16:06:45.628Z,73.97
2022-11-27T16:09:13.017Z,64.15
2022-11-27T16:11:40.694Z,75.93
2022-11-27T16:14:08.009Z,71.95
2022-11-27T16:16:35.613Z,71.37
2022-11-27T16:19:05.419Z,68.68
2022-11-27T16:21:34.181Z,62.20
2022-11-27T16:24:04.085Z,66.00
2022-11-27T16:26:32.904Z,68.50
2022-11-27T16:29:00.382Z,69.70
2022-11-27T16:31:28.075Z,69.72
2022-11-27T16:33:56.310Z,67.85
2022-11-27T16:36:24.207Z,62.70
2022-11-27T16:38:52.592Z,58.13
2022-11-27T16:41:20.701Z,59.33
2022-11-27T16:43:50.742Z,55.63
2022-11-27T16:46:27.574Z,59.28
2022-11-27T16:48:57.595Z,52.30
2022-11-27T16:51:28.482Z,48.50
2022-11-27T16:53:57.738Z,61.83
2022-11-27T16:56:27.233Z,50.40
2022-11-27T16:59:00.958Z,52.55
2022-11-27T17:01:34.333Z,49.15
2022-11-27T17:04:04.870Z,54.72
2022-11-27T17:06:33.390Z,49.95
2022-11-27T17:09:02.247Z,53.60
2022-11-27T17:11:35.473Z,51.35
2022-11-27T17:14:08.361Z,53.28
2022-11-27T17:16:38.760Z,52.90
2022-11-27T17:19:07.141Z,56.65
2022-11-27T17:21:35.360Z,56.60
2022-11-27T17:24:10.124Z,50.45
2022-11-27T17:26:43.469Z,51.88
2022-11-27T17:29:12.828Z,47.78
2022-11-27T17:31:40.386Z,49.00
2022-11-27T17:34:09.801Z,45.15
2022-11-27T17:36:37.658Z,46.58
2022-11-27T17:39:06.863Z,40.90
2022-11-27T17:41:34.762Z,39.10
2022-11-27T17:44:05.396Z,38.25
2022-11-27T17:46:33.515Z,39.88
2022-11-27T17:49:03.959Z,50.10
2022-11-27T17:51:33.062Z,49.05
2022-11-27T17:54:01.879Z,42.35
2022-11-27T17:56:30.038Z,63.40
2022-11-27T17:58:59.721Z,66.57
2022-11-27T18:01:29.281Z,76.60
2022-11-27T18:04:00.418Z,64.28
2022-11-27T18:06:30.071Z,56.85
2022-11-27T18:08:58.542Z,50.22
2022-11-27T18:11:28.559Z,51.03
2022-11-27T18:13:57.528Z,44.42
2022-11-27T18:16:29.165Z,53.75
2022-11-27T18:18:57.997Z,47.50
2022-11-27T18:21:28.878Z,40.22
2022-11-27T18:27:07.062Z,44.58
2022-11-27T18:29:31.782Z,49.50
2022-11-27T18:31:59.532Z,45.78
2022-11-27T18:34:27.017Z,37.92
2022-11-27T18:36:57.290Z,37.95
2022-11-27T18:39:25.465Z,37.38
2022-11-27T18:41:52.850Z,37.40
2022-11-27T18:44:20.567Z,39.22
2022-11-27T18:46:48.255Z,39.53
2022-11-27T18:49:15.645Z,38.58
2022-11-27T18:51:43.042Z,31.48
2022-11-27T18:54:10.863Z,34.22
2022-11-27T18:56:38.344Z,31.90
2022-11-27T18:59:06.558Z,32.55
2022-11-27T19:01:41.461Z,37.30
2022-11-27T19:04:10.624Z,37.97
2022-11-27T19:06:39.222Z,35.10
2022-11-27T19:09:07.043Z,31.48
2022-11-27T19:11:35.171Z,33.15
2022-11-27T19:14:04.502Z,40.00
2022-11-27T19:16:39.116Z,39.88
2022-11-27T19:19:07.423Z,40.55
2022-11-27T19:21:35.500Z,44.78
2022-11-27T19:24:04.965Z,48.53
2022-11-27T19:26:35.346Z,51.65
2022-11-27T19:29:08.974Z,50.67
2022-11-27T19:31:39.368Z,49.08
2022-11-27T19:34:07.615Z,45.42
2022-11-27T19:36:35.701Z,37.15
2022-11-27T19:39:06.692Z,43.58
2022-11-27T19:41:34.316Z,40.03
2022-11-27T19:44:04.651Z,35.75
2022-11-27T19:46:35.367Z,38.72
2022-11-27T19:49:05.870Z,37.65
2022-11-27T19:51:35.594Z,33.65
2022-11-27T19:54:07.055Z,31.25
2022-11-27T19:56:40.084Z,29.30
2022-11-27T19:59:08.670Z,31.62
2022-11-27T20:01:37.770Z,29.98
2022-11-27T20:04:06.403Z,30.50
2022-11-27T20:06:37.304Z,28.30
2022-11-27T20:09:05.497Z,29.05
2022-11-27T20:11:35.418Z,30.45
2022-11-27T20:14:05.349Z,27.65
2022-11-27T20:16:34.000Z,33.53
2022-11-27T20:19:02.274Z,38.30
2022-11-27T20:21:29.813Z,36.95
2022-11-27T20:23:57.761Z,36.78
2022-11-27T20:26:27.488Z,39.72
2022-11-27T20:28:55.202Z,45.08
2022-11-27T20:31:33.970Z,42.88
2022-11-27T20:34:03.464Z,40.05
2022-11-27T20:36:33.026Z,48.65
2022-11-27T20:39:01.075Z,46.72
2022-11-27T20:41:29.000Z,44.17
2022-11-27T20:43:59.260Z,47.58
2022-11-27T20:46:27.299Z,52.00
2022-11-27T20:48:55.231Z,48.33
2022-11-27T20:51:28.713Z,45.70
2022-11-27T20:53:57.616Z,50.05
2022-11-27T20:56:25.651Z,53.87
2022-11-27T20:58:54.166Z,49.75
2022-11-27T21:01:33.443Z,49.08
2022-11-27T21:04:04.318Z,50.90
2022-11-27T21:06:32.503Z,46.95
2022-11-27T21:09:01.875Z,46.33
2022-11-27T21:11:31.129Z,49.78
2022-11-27T21:14:01.204Z,51.78
2022-11-27T21:16:30.994Z,48.58
2022-11-27T21:19:00.265Z,49.67
2022-11-27T21:21:28.610Z,45.35
2022-11-27T21:23:56.017Z,46.22
2022-11-27T21:26:24.118Z,50.20
2022-11-27T21:28:51.726Z,53.63
2022-11-27T21:31:24.415Z,51.50
2022-11-27T21:33:57.676Z,48.17
2022-11-27T21:36:30.526Z,47.28
2022-11-27T21:38:58.900Z,45.22
2022-11-27T21:41:26.980Z,47.28
2022-11-27T21:43:56.782Z,46.97
2022-11-27T21:46:25.322Z,44.15
2022-11-27T21:48:56.174Z,43.00
2022-11-27T21:51:25.962Z,46.97
2022-11-27T21:53:55.369Z,40.53
2022-11-27T21:56:24.459Z,43.53
2022-11-27T21:58:52.423Z,43.72
2022-11-27T22:01:22.542Z,42.35
2022-11-27T22:03:53.983Z,42.30
2022-11-27T22:06:22.682Z,41.15
2022-11-27T22:08:51.044Z,39.42
2022-11-27T22:11:20.908Z,43.53
2022-11-27T22:13:50.039Z,40.22
2022-11-27T22:16:19.928Z,44.13
2022-11-27T22:18:48.034Z,41.80
2022-11-27T22:21:16.570Z,37.42
2022-11-27T22:23:44.661Z,41.85
2022-11-27T22:26:13.905Z,41.75
2022-11-27T22:28:42.104Z,39.67
2022-11-27T22:31:28.199Z,41.78
2022-11-27T22:33:56.373Z,35.10
2022-11-27T22:36:31.255Z,37.45
2022-11-27T22:39:00.726Z,43.67
2022-11-27T22:41:30.232Z,47.70
2022-11-27T22:44:00.309Z,45.53
2022-11-27T22:46:33.850Z,39.38
2022-11-27T22:49:04.544Z,37.47
2022-11-27T22:51:35.325Z,41.63
2022-11-27T22:54:03.919Z,37.72
2022-11-27T22:56:33.698Z,44.47
2022-11-27T22:59:30.387Z,46.63
2022-11-27T23:01:49.172Z,42.45
2022-11-27T23:04:17.179Z,41.22
2022-11-27T23:06:48.601Z,40.95
2022-11-27T23:09:18.112Z,37.53
2022-11-27T23:11:45.587Z,35.55
2022-11-27T23:14:13.212Z,38.17
2022-11-27T23:16:40.907Z,35.63
2022-11-27T23:19:08.922Z,38.90
2022-11-27T23:21:37.699Z,36.20
2022-11-27T23:24:06.632Z,36.22
2022-11-27T23:26:34.428Z,36.75
2022-11-27T23:29:02.144Z,33.70
2022-11-27T23:31:32.615Z,38.42
2022-11-27T23:34:01.948Z,38.85
2022-11-27T23:36:30.974Z,40.00
2022-11-27T23:39:03.025Z,36.55
2022-11-27T23:41:31.385Z,37.25
2022-11-27T23:43:58.764Z,38.70
2022-11-27T23:46:27.802Z,38.50
2022-11-27T23:48:56.773Z,36.45
2022-11-27T23:51:26.267Z,37.88
2022-11-27T23:53:53.850Z,34.78
2022-11-27T23:56:24.089Z,40.03
2022-11-27T23:58:51.459Z,38.72
